createdAt,value
2023-05-16T00:00:35.216Z,100.00
2023-05-16T00:02:35.510Z,100.00
2023-05-16T00:03:03.267Z,100.00
2023-05-16T00:05:29.890Z,100.00
2023-05-16T00:07:35.312Z,100.00
2023-05-16T00:07:56.300Z,100.00
2023-05-16T00:10:22.762Z,100.00
2023-05-16T00:12:35.429Z,100.00
2023-05-16T00:12:51.631Z,100.00
2023-05-16T00:15:20.297Z,100.00
2023-05-16T00:17:35.373Z,100.00
2023-05-16T00:17:49.487Z,100.00
2023-05-16T00:20:17.306Z,100.00
2023-05-16T00:22:35.329Z,100.00
2023-05-16T00:22:43.969Z,100.00
2023-05-16T00:25:10.396Z,100.00
2023-05-16T00:27:35.342Z,100.00
2023-05-16T00:27:37.062Z,100.00
2023-05-16T00:30:04.205Z,100.00
2023-05-16T00:32:31.530Z,100.00
2023-05-16T00:32:35.353Z,100.00
2023-05-16T00:34:57.965Z,100.00
2023-05-16T00:37:24.441Z,100.00
2023-05-16T00:37:35.319Z,100.00
2023-05-16T00:39:50.799Z,100.00
2023-05-16T00:42:19.752Z,100.00
2023-05-16T00:42:35.370Z,100.00
2023-05-16T00:44:46.384Z,100.00
2023-05-16T00:47:12.965Z,100.00
2023-05-16T00:47:35.399Z,100.00
2023-05-16T00:49:39.600Z,100.00
2023-05-16T00:52:06.320Z,100.00
2023-05-16T00:52:35.325Z,100.00
2023-05-16T00:54:33.804Z,100.00
2023-05-16T00:57:00.302Z,100.00
2023-05-16T00:57:35.333Z,100.00
2023-05-16T00:59:27.330Z,100.00
2023-05-16T01:01:53.933Z,100.00
2023-05-16T01:02:35.465Z,100.00
2023-05-16T01:04:21.207Z,100.00
2023-05-16T01:06:47.657Z,100.00
2023-05-16T01:07:35.355Z,100.00
2023-05-16T01:09:14.514Z,100.00
2023-05-16T01:11:53.313Z,100.00
2023-05-16T01:12:35.416Z,100.00
2023-05-16T01:14:38.604Z,100.00
2023-05-16T01:17:23.413Z,100.00
2023-05-16T01:17:35.410Z,100.00
2023-05-16T01:20:15.577Z,100.00
2023-05-16T01:22:35.356Z,100.00
2023-05-16T01:22:46.010Z,100.00
2023-05-16T01:25:32.047Z,100.00
2023-05-16T01:27:35.344Z,100.00
2023-05-16T01:27:59.358Z,100.00
2023-05-16T01:30:25.758Z,100.00
2023-05-16T01:32:35.373Z,100.00
2023-05-16T01:32:52.667Z,100.00
2023-05-16T01:35:19.264Z,100.00
2023-05-16T01:37:35.347Z,100.00
2023-05-16T01:38:04.644Z,100.00
2023-05-16T01:40:46.373Z,100.00
2023-05-16T01:42:35.325Z,100.00
2023-05-16T01:43:17.493Z,100.00
2023-05-16T01:45:57.721Z,100.00
2023-05-16T01:47:35.378Z,100.00
2023-05-16T01:48:30.750Z,100.00
2023-05-16T01:51:00.785Z,100.00
2023-05-16T01:52:35.376Z,100.00
2023-05-16T01:53:33.387Z,100.00
2023-05-16T01:56:02.566Z,100.00
2023-05-16T01:57:35.346Z,100.00
2023-05-16T01:58:31.950Z,100.00
2023-05-16T02:01:03.694Z,100.00
2023-05-16T02:02:35.393Z,100.00
2023-05-16T02:03:34.414Z,100.00
2023-05-16T02:06:01.102Z,100.00
2023-05-16T02:07:35.338Z,100.00
2023-05-16T02:08:29.073Z,100.00
2023-05-16T02:10:55.522Z,100.00
2023-05-16T02:12:35.396Z,100.00
2023-05-16T02:13:22.110Z,100.00
2023-05-16T02:15:48.503Z,100.00
2023-05-16T02:17:35.508Z,100.00
2023-05-16T02:18:14.862Z,100.00
2023-05-16T02:20:41.288Z,100.00
2023-05-16T02:22:35.519Z,100.00
2023-05-16T02:23:07.680Z,100.00
2023-05-16T02:25:34.046Z,100.00
2023-05-16T02:27:35.515Z,100.00
2023-05-16T02:28:00.509Z,100.00
2023-05-16T02:30:26.912Z,100.00
2023-05-16T02:32:35.589Z,100.00
2023-05-16T02:32:54.155Z,100.00
2023-05-16T02:35:20.930Z,100.00
2023-05-16T02:37:35.568Z,100.00
2023-05-16T02:37:47.449Z,100.00
2023-05-16T02:40:14.041Z,100.00
2023-05-16T02:42:35.578Z,100.00
2023-05-16T02:42:40.381Z,100.00
2023-05-16T02:45:07.075Z,100.00
2023-05-16T02:47:33.496Z,100.00
2023-05-16T02:47:35.643Z,100.00
2023-05-16T02:49:59.878Z,100.00
2023-05-16T02:52:26.371Z,100.00
2023-05-16T02:52:35.755Z,100.00
2023-05-16T02:57:22.028Z,100.00
2023-05-16T02:57:35.741Z,100.00
2023-05-16T02:59:48.496Z,100.00
2023-05-16T03:02:14.917Z,100.00
2023-05-16T03:02:35.802Z,100.00
2023-05-16T03:04:41.258Z,100.00
2023-05-16T03:07:07.660Z,100.00
2023-05-16T03:07:35.695Z,100.00
2023-05-16T03:09:34.238Z,100.00
2023-05-16T03:12:00.759Z,100.00
2023-05-16T03:12:35.801Z,100.00
2023-05-16T03:14:27.078Z,100.00
2023-05-16T03:16:53.451Z,100.00
2023-05-16T03:17:35.646Z,100.00
2023-05-16T03:19:20.033Z,100.00
2023-05-16T03:21:46.543Z,100.00
2023-05-16T03:22:35.608Z,100.00
2023-05-16T03:24:12.893Z,100.00
2023-05-16T03:26:39.282Z,100.00
2023-05-16T03:27:35.595Z,100.00
2023-05-16T03:29:05.685Z,100.00
2023-05-16T03:31:32.436Z,100.00
2023-05-16T03:32:35.636Z,100.00
2023-05-16T03:33:59.312Z,100.00
2023-05-16T03:36:27.242Z,100.00
2023-05-16T03:37:35.576Z,100.00
2023-05-16T03:38:53.614Z,100.00
2023-05-16T03:41:19.931Z,100.00
2023-05-16T03:42:35.607Z,100.00
2023-05-16T03:43:48.633Z,100.00
2023-05-16T03:46:15.079Z,100.00
2023-05-16T03:47:35.621Z,100.00
2023-05-16T03:48:41.495Z,100.00
2023-05-16T03:51:07.836Z,100.00
2023-05-16T03:52:35.630Z,100.00
2023-05-16T03:53:34.177Z,100.00
2023-05-16T03:56:00.576Z,100.00
2023-05-16T03:57:35.599Z,100.00
2023-05-16T03:58:27.100Z,100.00
2023-05-16T04:00:53.438Z,100.00
2023-05-16T04:02:35.723Z,100.00
2023-05-16T04:03:20.179Z,100.00
2023-05-16T04:05:46.633Z,100.00
2023-05-16T04:07:35.641Z,100.00
2023-05-16T04:08:13.132Z,100.00
2023-05-16T04:10:39.521Z,100.00
2023-05-16T04:12:35.708Z,100.00
2023-05-16T04:13:05.975Z,100.00
2023-05-16T04:15:32.449Z,100.00
2023-05-16T04:17:35.734Z,100.00
2023-05-16T04:17:58.863Z,100.00
2023-05-16T04:20:25.356Z,100.00
2023-05-16T04:22:35.602Z,100.00
2023-05-16T04:22:51.977Z,100.00
2023-05-16T04:25:18.487Z,100.00
2023-05-16T04:27:35.682Z,100.00
2023-05-16T04:27:45.300Z,100.00
2023-05-16T04:30:14.803Z,100.00
2023-05-16T04:32:35.643Z,100.00
2023-05-16T04:32:41.309Z,100.00
2023-05-16T04:35:09.117Z,100.00
2023-05-16T04:37:35.886Z,100.00
2023-05-16T04:37:36.034Z,100.00
2023-05-16T04:40:02.379Z,100.00
2023-05-16T04:42:28.755Z,100.00
2023-05-16T04:42:35.631Z,100.00
2023-05-16T04:44:56.255Z,100.00
2023-05-16T04:47:22.712Z,100.00
2023-05-16T04:47:35.655Z,100.00
2023-05-16T04:49:49.066Z,100.00
2023-05-16T04:52:15.788Z,100.00
2023-05-16T04:52:35.625Z,100.00
2023-05-16T04:54:42.334Z,100.00
2023-05-16T04:57:08.687Z,100.00
2023-05-16T04:57:35.652Z,100.00
2023-05-16T04:59:35.087Z,100.00
2023-05-16T05:02:01.494Z,100.00
2023-05-16T05:02:35.692Z,100.00
2023-05-16T05:04:27.989Z,100.00
2023-05-16T05:06:54.461Z,100.00
2023-05-16T05:07:35.623Z,100.00
2023-05-16T05:09:20.873Z,93.88
2023-05-16T05:11:47.285Z,90.05
2023-05-16T05:12:35.748Z,90.05
2023-05-16T05:14:13.686Z,87.51
2023-05-16T05:16:40.935Z,85.79
2023-05-16T05:17:35.813Z,85.79
2023-05-16T05:19:08.909Z,84.35
2023-05-16T05:21:35.452Z,81.50
2023-05-16T05:22:35.647Z,81.50
2023-05-16T05:24:01.832Z,79.96
2023-05-16T05:26:29.030Z,79.98
2023-05-16T05:27:35.636Z,79.98
2023-05-16T05:29:04.779Z,79.52
2023-05-16T05:31:33.637Z,79.16
2023-05-16T05:32:35.694Z,79.16
2023-05-16T05:34:00.697Z,78.08
2023-05-16T05:36:27.407Z,79.57
2023-05-16T05:37:35.643Z,79.57
2023-05-16T05:38:53.779Z,79.53
2023-05-16T05:41:21.665Z,77.76
2023-05-16T05:42:35.619Z,77.76
2023-05-16T05:43:50.406Z,75.10
2023-05-16T05:46:17.336Z,73.39
2023-05-16T05:47:35.663Z,73.39
2023-05-16T05:48:43.975Z,72.56
2023-05-16T05:51:10.463Z,72.26
2023-05-16T05:52:35.657Z,72.26
2023-05-16T05:53:36.859Z,72.58
2023-05-16T05:56:03.290Z,72.02
2023-05-16T05:57:35.644Z,72.02
2023-05-16T05:58:29.678Z,70.75
2023-05-16T06:00:56.036Z,70.53
2023-05-16T06:02:35.774Z,70.53
2023-05-16T06:03:22.414Z,70.17
2023-05-16T06:05:48.994Z,70.38
2023-05-16T06:07:35.653Z,70.38
2023-05-16T06:08:15.448Z,70.31
2023-05-16T06:10:41.865Z,71.39
2023-05-16T06:12:35.634Z,71.39
2023-05-16T06:13:08.234Z,71.47
2023-05-16T06:15:34.596Z,73.83
2023-05-16T06:17:35.694Z,73.83
2023-05-16T06:18:03.224Z,76.13
2023-05-16T06:20:29.704Z,77.89
2023-05-16T06:22:35.663Z,77.89
2023-05-16T06:22:56.448Z,78.47
2023-05-16T06:25:22.870Z,79.64
2023-05-16T06:27:35.664Z,79.64
2023-05-16T06:27:49.293Z,80.94
2023-05-16T06:30:16.047Z,82.11
2023-05-16T06:32:35.697Z,82.11
2023-05-16T06:32:42.423Z,81.26
2023-05-16T06:35:09.657Z,80.99
2023-05-16T06:37:36.266Z,80.79
2023-05-16T06:37:36.418Z,80.79
2023-05-16T06:40:03.123Z,79.40
2023-05-16T06:42:29.563Z,79.25
2023-05-16T06:42:35.617Z,79.25
2023-05-16T06:44:55.982Z,78.95
2023-05-16T06:47:22.921Z,79.05
2023-05-16T06:47:35.695Z,79.05
2023-05-16T06:49:49.380Z,79.16
2023-05-16T06:52:15.943Z,78.44
2023-05-16T06:52:35.689Z,78.44
2023-05-16T06:54:42.494Z,78.10
2023-05-16T06:57:09.082Z,76.94
2023-05-16T06:57:35.735Z,76.94
2023-05-16T06:59:36.220Z,76.51
2023-05-16T07:02:02.872Z,77.19
2023-05-16T07:02:35.796Z,77.19
2023-05-16T07:04:29.330Z,77.88
2023-05-16T07:06:55.727Z,76.43
2023-05-16T07:07:35.645Z,76.43
2023-05-16T07:09:22.186Z,77.36
2023-05-16T07:11:48.648Z,75.00
2023-05-16T07:12:35.681Z,75.00
2023-05-16T07:14:15.104Z,75.94
2023-05-16T07:16:41.958Z,75.07
2023-05-16T07:17:35.689Z,75.07
2023-05-16T07:19:08.618Z,74.04
2023-05-16T07:21:35.153Z,72.55
2023-05-16T07:22:35.659Z,72.55
2023-05-16T07:24:01.763Z,74.63
2023-05-16T07:26:28.238Z,74.23
2023-05-16T07:27:35.669Z,74.23
2023-05-16T07:28:55.303Z,73.69
2023-05-16T07:31:21.725Z,73.38
2023-05-16T07:32:35.702Z,73.38
2023-05-16T07:33:49.173Z,71.67
2023-05-16T07:36:17.231Z,70.81
2023-05-16T07:37:35.694Z,70.81
2023-05-16T07:38:44.820Z,68.72
2023-05-16T07:41:11.495Z,67.96
2023-05-16T07:42:35.710Z,67.96
2023-05-16T07:43:37.932Z,66.88
2023-05-16T07:46:05.264Z,66.00
2023-05-16T07:47:35.755Z,66.00
2023-05-16T07:48:31.789Z,66.07
2023-05-16T07:50:58.165Z,67.32
2023-05-16T07:52:35.644Z,67.32
2023-05-16T07:53:24.767Z,65.94
2023-05-16T07:55:51.227Z,68.59
2023-05-16T07:57:35.691Z,68.59
2023-05-16T07:58:17.797Z,68.11
2023-05-16T08:00:44.206Z,66.69
2023-05-16T08:02:35.797Z,66.69
2023-05-16T08:03:10.905Z,66.37
2023-05-16T08:05:37.499Z,66.59
2023-05-16T08:07:35.681Z,66.59
2023-05-16T08:08:04.131Z,66.28
2023-05-16T08:10:30.548Z,65.39
2023-05-16T08:12:35.691Z,65.39
2023-05-16T08:12:57.018Z,64.38
2023-05-16T08:15:23.435Z,66.31
2023-05-16T08:17:35.732Z,66.31
2023-05-16T08:17:50.721Z,64.69
2023-05-16T08:20:17.437Z,64.00
2023-05-16T08:22:35.657Z,64.00
2023-05-16T08:22:43.905Z,65.20
2023-05-16T08:25:10.495Z,65.72
2023-05-16T08:27:36.938Z,62.80
2023-05-16T08:27:37.085Z,62.80
2023-05-16T08:30:03.805Z,63.64
2023-05-16T08:32:30.600Z,64.05
2023-05-16T08:32:35.766Z,64.05
2023-05-16T08:34:57.079Z,63.43
2023-05-16T08:37:23.513Z,64.75
2023-05-16T08:37:35.766Z,64.75
2023-05-16T08:39:49.933Z,64.53
2023-05-16T08:42:16.536Z,63.29
2023-05-16T08:42:35.699Z,63.29
2023-05-16T08:44:42.998Z,63.04
2023-05-16T08:47:18.076Z,64.09
2023-05-16T08:47:35.732Z,64.09
2023-05-16T08:49:48.553Z,60.90
2023-05-16T08:52:19.431Z,59.57
2023-05-16T08:52:35.700Z,59.57
2023-05-16T08:54:50.342Z,59.55
2023-05-16T08:57:22.114Z,60.98
2023-05-16T08:57:35.685Z,60.98
2023-05-16T08:59:49.222Z,58.64
2023-05-16T09:02:15.936Z,60.23
2023-05-16T09:02:35.753Z,60.23
2023-05-16T09:04:43.253Z,59.59
2023-05-16T09:07:09.932Z,60.98
2023-05-16T09:07:35.688Z,60.98
2023-05-16T09:09:36.415Z,59.92
2023-05-16T09:12:02.929Z,57.12
2023-05-16T09:12:35.725Z,57.12
2023-05-16T09:14:29.615Z,57.90
2023-05-16T09:17:12.186Z,58.00
2023-05-16T09:17:40.072Z,58.00
2023-05-16T09:19:40.375Z,58.26
2023-05-16T09:22:11.118Z,56.35
2023-05-16T09:22:35.721Z,56.35
2023-05-16T09:24:42.320Z,57.01
2023-05-16T09:27:13.759Z,56.87
2023-05-16T09:27:35.715Z,56.87
2023-05-16T09:29:41.891Z,55.84
2023-05-16T09:32:16.026Z,57.71
2023-05-16T09:32:35.764Z,57.71
2023-05-16T09:34:49.773Z,58.64
2023-05-16T09:37:16.215Z,57.88
2023-05-16T09:37:35.663Z,57.88
2023-05-16T09:39:50.058Z,56.07
2023-05-16T09:42:18.880Z,56.33
2023-05-16T09:42:36.738Z,56.33
2023-05-16T09:44:54.194Z,58.68
2023-05-16T09:47:21.663Z,56.22
2023-05-16T09:47:35.686Z,56.22
2023-05-16T09:49:52.765Z,55.14
2023-05-16T09:52:19.318Z,54.01
2023-05-16T09:52:35.729Z,54.01
2023-05-16T09:57:35.712Z,55.03
2023-05-16T09:58:38.094Z,55.73
2023-05-16T10:01:05.481Z,54.77
2023-05-16T10:02:35.871Z,54.77
2023-05-16T10:03:35.257Z,54.40
2023-05-16T10:06:02.932Z,53.63
2023-05-16T10:07:35.729Z,53.63
2023-05-16T10:08:32.088Z,55.38
2023-05-16T10:10:58.664Z,55.60
2023-05-16T10:12:35.682Z,55.60
2023-05-16T10:13:29.535Z,56.87
2023-05-16T10:15:57.576Z,55.61
2023-05-16T10:17:35.716Z,55.61
2023-05-16T10:18:30.912Z,53.36
2023-05-16T10:21:05.486Z,52.28
2023-05-16T10:22:35.711Z,52.28
2023-05-16T10:23:33.505Z,54.00
2023-05-16T10:26:03.436Z,54.90
2023-05-16T10:27:35.698Z,54.90
2023-05-16T10:28:30.082Z,54.16
2023-05-16T10:30:57.425Z,54.20
2023-05-16T10:32:35.747Z,54.20
2023-05-16T10:33:24.586Z,53.01
2023-05-16T10:35:51.438Z,53.90
2023-05-16T10:37:35.838Z,53.90
2023-05-16T10:38:19.836Z,52.25
2023-05-16T10:40:48.059Z,50.90
2023-05-16T10:42:35.685Z,50.90
2023-05-16T10:43:27.028Z,51.66
2023-05-16T10:45:58.428Z,51.30
2023-05-16T10:47:35.824Z,51.30
2023-05-16T10:48:36.659Z,52.85
2023-05-16T10:51:04.652Z,51.47
2023-05-16T10:52:35.691Z,51.47
2023-05-16T10:53:35.925Z,50.37
2023-05-16T10:56:03.020Z,50.38
2023-05-16T10:57:35.722Z,50.38
2023-05-16T10:58:38.733Z,54.10
2023-05-16T11:01:18.472Z,54.76
2023-05-16T11:02:35.841Z,54.76
2023-05-16T11:03:57.313Z,54.32
2023-05-16T11:06:25.396Z,54.55
2023-05-16T11:07:35.686Z,54.55
2023-05-16T11:09:09.549Z,55.09
2023-05-16T11:12:01.180Z,54.61
2023-05-16T11:12:35.696Z,54.61
2023-05-16T11:14:38.500Z,54.51
2023-05-16T11:17:22.842Z,55.18
2023-05-16T11:17:36.635Z,55.18
2023-05-16T11:19:51.304Z,56.08
2023-05-16T11:22:23.883Z,56.50
2023-05-16T11:22:35.715Z,56.50
2023-05-16T11:25:01.222Z,56.75
2023-05-16T11:27:32.730Z,57.83
2023-05-16T11:27:35.718Z,57.83
2023-05-16T11:30:05.373Z,57.81
2023-05-16T11:32:33.826Z,57.14
2023-05-16T11:32:35.890Z,23
2023-05-16T11:35:00.738Z,58.16
2023-05-16T11:37:27.194Z,56.77
2023-05-16T11:37:35.836Z,56.77
2023-05-16T11:39:54.357Z,58.62
2023-05-16T11:42:20.969Z,57.31
2023-05-16T11:42:35.709Z,57.31
2023-05-16T11:44:47.417Z,57.82
2023-05-16T11:47:14.052Z,55.67
2023-05-16T11:47:35.726Z,55.67
2023-05-16T11:49:41.352Z,56.75
2023-05-16T11:52:08.445Z,54.73
2023-05-16T11:52:35.731Z,54.73
2023-05-16T11:54:37.678Z,54.47
2023-05-16T11:57:04.407Z,54.05
2023-05-16T11:57:35.723Z,54.05
2023-05-16T11:59:31.120Z,51.40
2023-05-16T12:01:57.522Z,51.56
2023-05-16T12:02:35.791Z,51.56
2023-05-16T12:04:26.661Z,50.57
2023-05-16T12:07:01.191Z,52.10
2023-05-16T12:07:36.728Z,52.10
2023-05-16T12:09:27.635Z,50.67
2023-05-16T12:11:54.214Z,53.70
2023-05-16T12:12:35.776Z,53.70
2023-05-16T12:14:21.139Z,55.57
2023-05-16T12:16:50.588Z,57.69
2023-05-16T12:17:35.824Z,57.69
2023-05-16T12:19:17.431Z,58.84
2023-05-16T12:21:43.911Z,59.12
2023-05-16T12:22:35.757Z,59.12
2023-05-16T12:24:12.683Z,58.73
2023-05-16T12:26:40.888Z,57.56
2023-05-16T12:27:35.743Z,57.56
2023-05-16T12:29:07.990Z,56.55
2023-05-16T12:31:40.302Z,57.63
2023-05-16T12:32:35.921Z,57.63
2023-05-16T12:34:17.491Z,57.61
2023-05-16T12:36:44.470Z,59.28
2023-05-16T12:37:35.695Z,59.28
2023-05-16T12:39:13.991Z,59.60
2023-05-16T12:41:44.845Z,60.63
2023-05-16T12:42:35.735Z,60.63
2023-05-16T12:44:17.774Z,62.20
2023-05-16T12:46:49.830Z,63.92
2023-05-16T12:47:35.776Z,63.92
2023-05-16T12:49:20.037Z,63.64
2023-05-16T12:51:55.084Z,62.25
2023-05-16T12:52:35.748Z,62.25
2023-05-16T12:54:23.993Z,59.44
2023-05-16T12:56:50.482Z,57.04
2023-05-16T12:57:36.925Z,57.04
2023-05-16T12:59:17.405Z,55.36
2023-05-16T13:01:45.728Z,53.42
2023-05-16T13:02:35.811Z,53.42
2023-05-16T13:04:16.713Z,50.54
2023-05-16T13:06:57.583Z,51.15
2023-05-16T13:07:35.716Z,51.15
2023-05-16T13:09:28.926Z,50.67
2023-05-16T13:11:57.710Z,50.77
2023-05-16T13:12:35.727Z,50.77
2023-05-16T13:14:24.135Z,50.13
2023-05-16T13:16:51.430Z,49.55
2023-05-16T13:17:35.787Z,49.55
2023-05-16T13:19:18.029Z,49.20
2023-05-16T13:21:44.479Z,50.23
2023-05-16T13:22:35.735Z,50.23
2023-05-16T13:24:10.882Z,48.86
2023-05-16T13:26:37.495Z,49.01
2023-05-16T13:27:35.727Z,49.01
2023-05-16T13:29:03.893Z,49.98
2023-05-16T13:31:30.373Z,47.42
2023-05-16T13:32:35.874Z,47.42
2023-05-16T13:33:56.851Z,44.98
2023-05-16T13:36:23.241Z,43.76
2023-05-16T13:37:35.720Z,43.76
2023-05-16T13:38:49.657Z,43.92
2023-05-16T13:41:16.096Z,44.23
2023-05-16T13:42:35.711Z,44.23
2023-05-16T13:43:42.464Z,44.22
2023-05-16T13:46:09.045Z,42.50
2023-05-16T13:47:35.781Z,42.50
2023-05-16T13:48:35.650Z,42.43
2023-05-16T13:51:02.042Z,42.71
2023-05-16T13:52:37.721Z,42.71
2023-05-16T13:53:28.466Z,44.51
2023-05-16T13:55:56.990Z,44.84
2023-05-16T13:57:35.732Z,44.84
2023-05-16T13:58:23.334Z,44.23
2023-05-16T14:00:50.853Z,43.64
2023-05-16T14:02:35.755Z,43.64
2023-05-16T14:03:17.744Z,44.31
2023-05-16T14:05:44.360Z,43.94
2023-05-16T14:07:35.739Z,43.94
2023-05-16T14:08:10.764Z,42.70
2023-05-16T14:10:37.198Z,42.79
2023-05-16T14:12:35.737Z,42.79
2023-05-16T14:13:03.628Z,43.31
2023-05-16T14:15:30.531Z,43.55
2023-05-16T14:17:35.742Z,43.55
2023-05-16T14:17:57.409Z,45.12
2023-05-16T14:20:23.860Z,45.00
2023-05-16T14:22:35.736Z,45.00
2023-05-16T14:22:50.244Z,45.24
2023-05-16T14:25:16.760Z,46.10
2023-05-16T14:27:35.737Z,46.10
2023-05-16T14:27:43.136Z,47.31
2023-05-16T14:30:09.992Z,45.72
2023-05-16T14:32:36.477Z,43.47
2023-05-16T14:32:36.781Z,43.47
2023-05-16T14:35:05.274Z,42.48
2023-05-16T14:37:31.777Z,43.99
2023-05-16T14:37:35.715Z,43.99
2023-05-16T14:39:59.587Z,45.48
2023-05-16T14:42:26.448Z,46.47
2023-05-16T14:42:35.863Z,46.47
2023-05-16T14:44:53.138Z,45.90
2023-05-16T14:47:22.353Z,46.67
2023-05-16T14:47:35.773Z,46.67
2023-05-16T14:49:48.778Z,45.79
2023-05-16T14:52:15.356Z,46.32
2023-05-16T14:52:35.730Z,46.32
2023-05-16T14:54:44.000Z,45.93
2023-05-16T14:57:10.566Z,45.29
2023-05-16T14:57:35.780Z,45.29
2023-05-16T14:59:39.512Z,47.63
2023-05-16T15:02:06.748Z,46.74
2023-05-16T15:02:35.742Z,46.74
2023-05-16T15:04:33.333Z,45.45
2023-05-16T15:06:59.779Z,44.43
2023-05-16T15:07:35.792Z,44.43
2023-05-16T15:09:26.261Z,45.45
2023-05-16T15:11:52.706Z,44.34
2023-05-16T15:12:35.741Z,44.34
2023-05-16T15:14:19.069Z,45.03
2023-05-16T15:16:47.329Z,45.03
2023-05-16T15:17:35.737Z,45.03
2023-05-16T15:19:13.979Z,44.47
2023-05-16T15:21:41.052Z,43.54
2023-05-16T15:22:35.776Z,43.54
2023-05-16T15:24:08.324Z,43.93
2023-05-16T15:26:35.178Z,44.33
2023-05-16T15:27:35.753Z,44.33
2023-05-16T15:29:01.548Z,44.88
2023-05-16T15:31:28.154Z,44.65
2023-05-16T15:32:35.762Z,44.65
2023-05-16T15:33:54.607Z,44.37
2023-05-16T15:36:21.127Z,45.31
2023-05-16T15:37:35.752Z,45.31
2023-05-16T15:38:47.703Z,44.29
2023-05-16T15:41:31.413Z,44.29
2023-05-16T15:42:35.855Z,44.29
2023-05-16T15:44:02.186Z,44.46
2023-05-16T15:46:30.360Z,44.95
2023-05-16T15:47:35.752Z,44.95
2023-05-16T15:48:56.972Z,45.20
2023-05-16T15:51:23.568Z,45.55
2023-05-16T15:52:35.742Z,45.55
2023-05-16T15:53:50.357Z,46.34
2023-05-16T15:56:18.927Z,47.37
2023-05-16T15:57:35.740Z,47.37
2023-05-16T15:58:46.840Z,47.97
2023-05-16T16:01:13.405Z,47.02
2023-05-16T16:02:38.759Z,47.02
2023-05-16T16:03:41.665Z,48.15
2023-05-16T16:06:08.377Z,49.26
2023-05-16T16:07:35.761Z,49.26
2023-05-16T16:08:34.871Z,49.48
2023-05-16T16:11:01.293Z,49.83
2023-05-16T16:12:35.730Z,49.83
2023-05-16T16:13:27.802Z,50.31
2023-05-16T16:15:54.347Z,49.07
2023-05-16T16:17:35.757Z,49.07
2023-05-16T16:18:21.295Z,49.60
2023-05-16T16:20:47.828Z,50.09
2023-05-16T16:22:35.734Z,50.09
2023-05-16T16:23:14.298Z,49.38
2023-05-16T16:25:40.878Z,50.91
2023-05-16T16:27:35.765Z,50.91
2023-05-16T16:28:07.384Z,50.09
2023-05-16T16:30:33.820Z,51.54
2023-05-16T16:32:35.777Z,51.54
2023-05-16T16:33:00.642Z,51.67
2023-05-16T16:35:28.895Z,52.33
2023-05-16T16:37:35.758Z,52.33
2023-05-16T16:40:28.915Z,52.64
2023-05-16T16:42:35.746Z,52.64
2023-05-16T16:42:55.529Z,53.83
2023-05-16T16:45:22.630Z,53.74
2023-05-16T16:47:35.755Z,53.74
2023-05-16T16:47:49.212Z,54.03
2023-05-16T16:50:15.781Z,52.63
2023-05-16T16:52:35.754Z,52.63
2023-05-16T16:52:42.841Z,53.00
2023-05-16T16:55:09.477Z,54.44
2023-05-16T16:57:35.995Z,54.97
2023-05-16T16:57:36.180Z,54.97
2023-05-16T17:00:02.469Z,55.58
2023-05-16T17:02:28.989Z,55.66
2023-05-16T17:02:35.891Z,55.66
2023-05-16T17:04:55.754Z,55.46
2023-05-16T17:07:22.155Z,55.36
2023-05-16T17:07:35.734Z,55.36
2023-05-16T17:09:48.605Z,54.91
2023-05-16T17:12:18.949Z,54.24
2023-05-16T17:12:35.752Z,54.24
2023-05-16T17:14:50.276Z,54.96
2023-05-16T17:17:18.498Z,54.38
2023-05-16T17:17:35.796Z,54.38
2023-05-16T17:19:47.906Z,54.49
2023-05-16T17:22:14.603Z,55.08
2023-05-16T17:22:35.759Z,55.08
2023-05-16T17:24:41.167Z,55.79
2023-05-16T17:27:07.657Z,56.43
2023-05-16T17:27:35.748Z,56.43
2023-05-16T17:29:34.145Z,56.07
2023-05-16T17:32:00.998Z,56.64
2023-05-16T17:32:35.839Z,56.64
2023-05-16T17:34:27.482Z,57.13
2023-05-16T17:36:54.138Z,56.58
2023-05-16T17:37:35.732Z,56.58
2023-05-16T17:39:20.732Z,57.80
2023-05-16T17:41:47.413Z,57.95
2023-05-16T17:42:35.758Z,57.95
2023-05-16T17:44:13.871Z,57.92
2023-05-16T17:46:40.508Z,58.24
2023-05-16T17:47:35.802Z,58.24
2023-05-16T17:49:07.929Z,58.56
2023-05-16T17:51:54.118Z,58.45
2023-05-16T17:52:35.728Z,58.45
2023-05-16T17:54:22.020Z,58.43
2023-05-16T17:56:49.636Z,57.59
2023-05-16T17:57:35.750Z,57.59
2023-05-16T17:59:16.687Z,58.68
2023-05-16T18:01:43.660Z,58.48
2023-05-16T18:02:38.410Z,58.48
2023-05-16T18:04:12.385Z,58.57
2023-05-16T18:06:38.948Z,58.83
2023-05-16T18:07:35.773Z,58.83
2023-05-16T18:09:06.963Z,59.34
2023-05-16T18:11:34.682Z,60.34
2023-05-16T18:12:35.733Z,60.34
2023-05-16T18:14:02.079Z,60.11
2023-05-16T18:16:30.098Z,59.79
2023-05-16T18:17:35.853Z,59.79
2023-05-16T18:19:00.137Z,58.81
2023-05-16T18:21:26.810Z,58.50
2023-05-16T18:22:35.733Z,58.50
2023-05-16T18:23:54.501Z,57.96
2023-05-16T18:26:21.936Z,58.56
2023-05-16T18:27:35.756Z,58.56
2023-05-16T18:28:48.578Z,58.76
2023-05-16T18:31:15.106Z,59.42
2023-05-16T18:32:35.829Z,59.42
2023-05-16T18:33:41.561Z,60.42
2023-05-16T18:36:08.313Z,60.70
2023-05-16T18:37:35.876Z,60.70
2023-05-16T18:38:34.838Z,60.61
2023-05-16T18:41:01.499Z,60.57
2023-05-16T18:42:35.765Z,60.57
2023-05-16T18:43:27.949Z,61.79
2023-05-16T18:45:54.363Z,61.09
2023-05-16T18:47:35.781Z,61.09
2023-05-16T18:48:21.064Z,60.80
2023-05-16T18:50:47.548Z,60.67
2023-05-16T18:52:35.741Z,60.67
2023-05-16T18:53:14.007Z,61.30
2023-05-16T18:55:40.468Z,61.72
2023-05-16T18:57:35.788Z,61.72
2023-05-16T18:58:07.042Z,61.98
2023-05-16T19:00:34.306Z,61.96
2023-05-16T19:02:42.179Z,61.96
2023-05-16T19:03:01.238Z,62.12
2023-05-16T19:05:28.647Z,62.58
2023-05-16T19:07:35.780Z,62.58
2023-05-16T19:07:55.406Z,63.14
2023-05-16T19:10:22.045Z,63.46
2023-05-16T19:12:35.784Z,63.46
2023-05-16T19:12:49.293Z,63.58
2023-05-16T19:15:16.057Z,63.23
2023-05-16T19:17:35.888Z,63.23
2023-05-16T19:17:43.009Z,62.97
2023-05-16T19:20:10.882Z,63.01
2023-05-16T19:22:35.771Z,63.01
2023-05-16T19:22:37.718Z,62.76
2023-05-16T19:25:05.303Z,63.72
2023-05-16T19:27:32.075Z,63.47
2023-05-16T19:27:35.763Z,63.47
2023-05-16T19:29:58.636Z,63.38
2023-05-16T19:32:25.327Z,63.75
2023-05-16T19:32:35.888Z,63.75
2023-05-16T19:34:52.212Z,64.04
2023-05-16T19:37:18.745Z,63.95
2023-05-16T19:37:35.885Z,63.95
2023-05-16T19:39:45.222Z,64.17
2023-05-16T19:42:11.819Z,64.85
2023-05-16T19:42:35.772Z,64.85
2023-05-16T19:44:38.236Z,64.78
2023-05-16T19:47:05.031Z,65.02
2023-05-16T19:47:35.837Z,65.02
2023-05-16T19:49:31.881Z,65.12
2023-05-16T19:51:58.516Z,65.99
2023-05-16T19:52:35.753Z,65.99
2023-05-16T19:54:24.896Z,65.32
2023-05-16T19:56:51.347Z,65.17
2023-05-16T19:57:35.752Z,65.17
2023-05-16T19:59:17.859Z,65.20
2023-05-16T20:01:44.280Z,65.51
2023-05-16T20:02:35.795Z,65.51
2023-05-16T20:04:11.728Z,65.61
2023-05-16T20:06:41.216Z,65.98
2023-05-16T20:07:35.772Z,65.98
2023-05-16T20:09:07.837Z,66.48
2023-05-16T20:11:34.505Z,66.80
2023-05-16T20:12:35.837Z,66.80
2023-05-16T20:14:00.918Z,66.99
2023-05-16T20:16:27.543Z,66.73
2023-05-16T20:17:35.799Z,66.73
2023-05-16T20:18:54.383Z,67.57
2023-05-16T20:21:20.961Z,67.78
2023-05-16T20:22:35.766Z,67.78
2023-05-16T20:23:47.486Z,68.25
2023-05-16T20:26:14.963Z,68.25
2023-05-16T20:27:35.772Z,68.25
2023-05-16T20:28:42.116Z,69.05
2023-05-16T20:31:08.638Z,69.09
2023-05-16T20:32:35.862Z,69.09
2023-05-16T20:33:35.254Z,70.18
2023-05-16T20:36:02.177Z,70.40
2023-05-16T20:37:35.761Z,70.40
2023-05-16T20:38:28.705Z,70.63
2023-05-16T20:40:55.675Z,70.94
2023-05-16T20:42:35.844Z,70.94
2023-05-16T20:43:22.385Z,70.84
2023-05-16T20:45:49.028Z,71.74
2023-05-16T20:47:35.794Z,71.74
2023-05-16T20:48:15.995Z,72.31
2023-05-16T20:50:42.468Z,72.55
2023-05-16T20:52:35.785Z,72.55
2023-05-16T20:53:08.840Z,72.59
2023-05-16T20:55:35.420Z,73.04
2023-05-16T20:57:35.758Z,73.04
2023-05-16T20:58:01.974Z,72.88
2023-05-16T21:00:28.457Z,73.37
2023-05-16T21:02:35.837Z,73.37
2023-05-16T21:02:54.925Z,73.10
2023-05-16T21:05:25.653Z,73.25
2023-05-16T21:07:35.768Z,73.25
2023-05-16T21:07:52.817Z,73.39
2023-05-16T21:10:19.361Z,73.77
2023-05-16T21:12:35.771Z,73.77